createdAt,value
2017-12-31T00:00:59.917Z,96856.62
2017-12-31T00:02:04.951Z,96845.17
2017-12-31T00:03:10.139Z,96867.46
2017-12-31T00:04:15.175Z,96864.22
2017-12-31T00:05:20.544Z,96870.49
2017-12-31T00:06:25.562Z,96865.92
2017-12-31T00:07:30.566Z,96867.23
2017-12-31T00:08:35.410Z,96857.25
2017-12-31T00:09:40.259Z,96863.41
2017-12-31T00:10:45.171Z,96860.00
2017-12-31T00:11:50.416Z,96852.84
2017-12-31T00:12:55.411Z,96864.51
2017-12-31T00:14:00.327Z,96860.05
2017-12-31T00:15:05.352Z,96861.58
2017-12-31T00:16:10.282Z,96860.20
2017-12-31T00:17:15.378Z,96854.68
2017-12-31T00:18:22.308Z,96856.73
2017-12-31T00:19:27.238Z,96867.80
2017-12-31T00:20:32.068Z,96862.30
2017-12-31T00:21:36.901Z,96865.70
2017-12-31T00:22:41.975Z,96860.98
2017-12-31T00:23:46.982Z,96859.77
2017-12-31T00:24:52.424Z,96866.11
2017-12-31T00:25:57.833Z,96864.53
2017-12-31T00:27:02.915Z,96864.31
2017-12-31T00:28:07.871Z,96865.94
2017-12-31T00:29:12.851Z,96867.07
2017-12-31T00:30:18.670Z,96870.11
2017-12-31T00:31:24.202Z,96870.22
2017-12-31T00:32:29.247Z,96869.23
2017-12-31T00:33:34.256Z,96865.70
2017-12-31T00:34:39.238Z,96869.36
2017-12-31T00:35:44.123Z,96877.59
2017-12-31T00:36:49.821Z,96865.25
2017-12-31T00:37:55.141Z,96874.55
2017-12-31T00:38:59.914Z,96869.23
2017-12-31T00:40:04.846Z,96868.44
2017-12-31T00:41:09.712Z,96866.86
2017-12-31T00:42:14.653Z,96863.78
2017-12-31T00:43:20.438Z,96865.41
2017-12-31T00:44:27.131Z,96869.23
2017-12-31T00:45:32.687Z,96863.70
2017-12-31T00:46:37.581Z,96864.11
2017-12-31T00:47:43.029Z,96869.88
2017-12-31T00:48:47.871Z,96870.38
2017-12-31T00:49:52.615Z,96871.77
2017-12-31T00:50:57.881Z,96874.67
2017-12-31T00:52:05.544Z,96866.55
2017-12-31T00:53:10.322Z,96865.95
2017-12-31T00:54:15.105Z,96876.36
2017-12-31T00:55:19.877Z,96873.91
2017-12-31T00:56:24.679Z,96875.22
2017-12-31T00:57:29.829Z,96879.20
2017-12-31T00:58:34.805Z,96875.43
2017-12-31T00:59:40.708Z,96873.83
2017-12-31T01:00:45.476Z,96874.88
2017-12-31T01:01:50.488Z,96879.03
2017-12-31T01:02:55.511Z,96870.55
2017-12-31T01:04:00.934Z,96882.08
2017-12-31T01:05:05.719Z,96872.82
2017-12-31T01:06:10.741Z,96881.25
2017-12-31T01:07:18.249Z,96878.77
2017-12-31T01:08:23.247Z,96871.45
2017-12-31T01:09:28.287Z,96869.03
2017-12-31T01:10:33.765Z,96875.52
2017-12-31T01:11:38.798Z,96860.41
2017-12-31T01:12:43.789Z,96871.86
2017-12-31T01:13:48.928Z,96864.04
2017-12-31T01:14:54.819Z,96869.86
2017-12-31T01:16:00.054Z,96870.61
2017-12-31T01:17:05.618Z,96882.45
2017-12-31T01:18:10.539Z,96883.09
2017-12-31T01:19:15.426Z,96886.77
2017-12-31T01:20:20.370Z,96873.72
2017-12-31T01:21:25.213Z,96890.45
2017-12-31T01:22:30.257Z,96887.84
2017-12-31T01:23:35.568Z,96892.55
2017-12-31T01:24:41.109Z,96891.58
2017-12-31T01:25:46.193Z,96882.50
2017-12-31T01:26:51.058Z,96879.70
2017-12-31T01:27:55.959Z,96878.53
2017-12-31T01:29:00.838Z,96880.55
2017-12-31T01:30:06.187Z,96878.77
2017-12-31T01:31:11.046Z,96873.80
2017-12-31T01:32:15.987Z,96883.44
2017-12-31T01:33:20.899Z,96880.17
2017-12-31T01:34:25.806Z,96876.15
2017-12-31T01:35:30.826Z,96880.84
2017-12-31T01:36:35.996Z,96877.22
2017-12-31T01:37:40.957Z,96876.47
2017-12-31T01:38:45.763Z,96876.81
2017-12-31T01:39:51.393Z,96879.88
2017-12-31T01:40:57.292Z,96885.19
2017-12-31T01:42:02.172Z,96874.28
2017-12-31T01:43:08.131Z,96881.17
2017-12-31T01:44:13.022Z,96890.00
2017-12-31T01:45:17.973Z,96876.52
2017-12-31T01:46:22.975Z,96881.28
2017-12-31T01:47:27.879Z,96882.59
2017-12-31T01:48:32.748Z,96874.60
2017-12-31T01:49:37.960Z,96878.52
2017-12-31T01:50:42.885Z,96887.84
2017-12-31T01:51:47.794Z,96873.02
2017-12-31T01:52:52.629Z,96879.02
2017-12-31T01:53:57.712Z,96876.63
2017-12-31T01:55:02.564Z,96884.60
2017-12-31T01:56:07.897Z,96880.84
2017-12-31T01:57:12.752Z,96888.02
2017-12-31T01:58:17.556Z,96889.43
2017-12-31T01:59:22.458Z,96887.78
2017-12-31T02:00:27.267Z,96881.98
2017-12-31T02:01:32.913Z,96878.27
2017-12-31T02:02:38.268Z,96883.05
2017-12-31T02:03:43.214Z,96895.08
2017-12-31T02:04:48.201Z,96889.66
2017-12-31T02:05:53.156Z,96892.78
2017-12-31T02:06:58.063Z,96884.75
2017-12-31T02:08:03.076Z,96870.23
2017-12-31T02:09:08.463Z,96877.75
2017-12-31T02:10:13.338Z,96888.23
2017-12-31T02:11:18.178Z,96884.25
2017-12-31T02:12:23.168Z,96879.69
2017-12-31T02:13:28.076Z,96866.08
2017-12-31T02:14:33.029Z,96873.21
2017-12-31T02:15:39.213Z,96876.27
2017-12-31T02:16:44.095Z,96877.52
2017-12-31T02:17:48.989Z,96882.31
2017-12-31T02:18:53.869Z,96874.91
2017-12-31T02:19:59.114Z,96876.06
2017-12-31T02:21:04.163Z,96870.81
2017-12-31T02:22:09.537Z,96882.92
2017-12-31T02:23:14.482Z,96872.16
2017-12-31T02:24:19.357Z,96873.82
2017-12-31T02:25:24.199Z,96877.66
2017-12-31T02:26:29.116Z,96864.17
2017-12-31T02:27:33.945Z,96867.08
2017-12-31T02:28:39.019Z,96866.64
2017-12-31T02:29:44.554Z,96874.91
2017-12-31T02:30:49.508Z,96875.27
2017-12-31T02:31:55.336Z,96867.45
2017-12-31T02:33:00.295Z,96870.47
2017-12-31T02:34:05.225Z,96866.92
2017-12-31T02:35:10.642Z,96879.58
2017-12-31T02:36:15.600Z,96878.41
2017-12-31T02:37:20.535Z,96863.69
2017-12-31T02:38:26.419Z,96871.38
2017-12-31T02:39:31.309Z,96869.67
2017-12-31T02:40:36.184Z,96870.22
2017-12-31T02:41:41.583Z,96866.11
2017-12-31T02:42:46.513Z,96870.80
2017-12-31T02:43:51.427Z,96869.52
2017-12-31T02:45:11.032Z,96868.63
2017-12-31T02:46:18.170Z,96863.03
2017-12-31T02:47:23.259Z,96858.73
2017-12-31T02:48:28.106Z,96859.67
2017-12-31T02:49:32.962Z,96860.58
2017-12-31T02:50:37.762Z,96854.72
2017-12-31T02:51:42.693Z,96853.52
2017-12-31T02:52:47.616Z,96853.28
2017-12-31T02:53:52.966Z,96864.05
2017-12-31T02:54:57.919Z,96867.96
2017-12-31T02:56:02.619Z,96861.80
2017-12-31T02:57:07.432Z,96857.14
2017-12-31T02:58:12.137Z,96861.55
2017-12-31T02:59:16.957Z,96848.73
2017-12-31T03:00:22.660Z,96859.07
2017-12-31T03:01:27.568Z,96849.45
2017-12-31T03:02:32.511Z,96848.55
2017-12-31T03:03:37.385Z,96843.64
2017-12-31T03:04:42.276Z,96841.34
2017-12-31T03:05:47.190Z,96840.34
2017-12-31T03:06:52.376Z,96837.58
2017-12-31T03:07:57.289Z,96840.90
2017-12-31T03:09:03.132Z,96837.19
2017-12-31T03:10:08.013Z,96832.38
2017-12-31T03:11:12.795Z,96825.63
2017-12-31T03:12:17.701Z,96827.78
2017-12-31T03:13:22.933Z,96826.53
2017-12-31T03:14:27.744Z,96830.69
2017-12-31T03:15:32.535Z,96826.30
2017-12-31T03:16:37.411Z,96823.47
2017-12-31T03:17:42.305Z,96820.94
2017-12-31T03:18:47.235Z,96827.32
2017-12-31T03:19:52.476Z,96827.72
2017-12-31T03:20:57.393Z,96819.20
2017-12-31T03:22:02.268Z,96823.92
2017-12-31T03:23:07.235Z,96818.45
2017-12-31T03:24:12.083Z,96821.77
2017-12-31T03:25:17.028Z,96818.16
2017-12-31T03:26:22.381Z,96820.31
2017-12-31T03:27:27.234Z,96816.16
2017-12-31T03:28:32.082Z,96809.50
2017-12-31T03:29:37.096Z,96804.99
2017-12-31T03:30:41.968Z,96808.30
2017-12-31T03:31:46.862Z,96807.64
2017-12-31T03:32:52.226Z,96809.80
2017-12-31T03:33:57.124Z,96810.15
2017-12-31T03:35:02.043Z,96808.50
2017-12-31T03:36:06.901Z,96807.59
2017-12-31T03:37:11.783Z,96810.20
2017-12-31T03:38:16.623Z,96810.30
2017-12-31T03:39:21.918Z,96806.14
2017-12-31T03:40:26.698Z,96799.08
2017-12-31T03:41:31.504Z,96797.55
2017-12-31T03:42:36.321Z,96800.03
2017-12-31T03:43:41.409Z,96797.60
2017-12-31T03:44:46.340Z,96802.09
2017-12-31T03:45:51.937Z,96803.98
2017-12-31T03:46:57.269Z,96804.89
2017-12-31T03:48:02.222Z,96800.73
2017-12-31T03:49:07.058Z,96798.73
2017-12-31T03:50:12.035Z,96791.67
2017-12-31T03:51:16.909Z,96787.88
2017-12-31T03:52:22.992Z,96785.02
2017-12-31T03:53:27.794Z,96778.58
2017-12-31T03:54:32.501Z,96790.55
2017-12-31T03:55:37.254Z,96790.38
2017-12-31T03:56:41.921Z,96792.87
2017-12-31T03:57:47.126Z,96789.52
2017-12-31T03:58:52.388Z,96784.16
2017-12-31T03:59:57.308Z,96785.27
2017-12-31T04:01:02.037Z,96799.28
2017-12-31T04:02:06.743Z,96794.22
2017-12-31T04:03:11.441Z,96786.61
2017-12-31T04:04:16.300Z,96790.47
2017-12-31T04:05:21.440Z,96786.28
2017-12-31T04:06:26.179Z,96788.33
2017-12-31T04:07:30.891Z,96782.38
2017-12-31T04:08:35.560Z,96781.64
2017-12-31T04:09:40.418Z,96796.26
2017-12-31T04:10:45.261Z,96788.74
2017-12-31T04:11:50.494Z,96788.19
2017-12-31T04:12:55.453Z,96786.64
2017-12-31T04:14:00.290Z,96794.70
2017-12-31T04:15:05.172Z,96783.27
2017-12-31T04:16:11.021Z,96786.95
2017-12-31T04:17:15.948Z,96780.64
2017-12-31T04:18:21.283Z,96783.23
2017-12-31T04:19:26.156Z,96777.66
2017-12-31T04:20:30.982Z,96775.56
2017-12-31T04:21:35.829Z,96776.70
2017-12-31T04:22:40.677Z,96767.02
2017-12-31T04:23:45.543Z,96771.29
2017-12-31T04:24:51.182Z,96779.16
2017-12-31T04:25:56.094Z,96779.48
2017-12-31T04:27:00.976Z,96772.79
2017-12-31T04:28:05.884Z,96778.30
2017-12-31T04:29:10.771Z,96776.07
2017-12-31T04:30:15.637Z,96779.39
2017-12-31T04:31:20.860Z,96777.83
2017-12-31T04:32:26.293Z,96778.13
2017-12-31T04:33:32.054Z,96774.94
2017-12-31T04:34:36.889Z,96757.91
2017-12-31T04:35:41.758Z,96773.48
2017-12-31T04:36:47.157Z,96780.67
2017-12-31T04:37:52.521Z,96781.91
2017-12-31T04:38:57.507Z,96777.12
2017-12-31T04:40:02.883Z,96783.47
2017-12-31T04:41:07.837Z,96770.07
2017-12-31T04:42:12.975Z,96774.97
2017-12-31T04:43:19.010Z,96771.73
2017-12-31T04:44:24.527Z,96773.56
2017-12-31T04:45:29.418Z,96778.27
2017-12-31T04:46:36.644Z,96775.98
2017-12-31T04:47:42.100Z,96776.73
2017-12-31T04:48:48.052Z,96782.34
2017-12-31T04:49:53.531Z,96783.59
2017-12-31T04:50:58.460Z,96776.50
2017-12-31T04:52:03.440Z,96788.03
2017-12-31T04:53:08.505Z,96730.86
2017-12-31T04:54:13.552Z,96747.98
2017-12-31T04:55:18.772Z,96760.72
2017-12-31T04:56:24.076Z,96774.08
2017-12-31T04:57:28.941Z,96773.33
2017-12-31T04:58:33.824Z,96761.87
2017-12-31T04:59:38.791Z,96783.00
2017-12-31T05:00:43.691Z,96776.95
2017-12-31T05:01:48.561Z,96767.58
2017-12-31T05:02:53.936Z,96765.47
2017-12-31T05:03:58.718Z,96755.64
2017-12-31T05:05:03.544Z,96780.22
2017-12-31T05:06:08.313Z,96774.61
2017-12-31T05:07:13.136Z,96809.64
2017-12-31T05:08:17.891Z,96782.03
2017-12-31T05:09:23.111Z,96730.12
2017-12-31T05:10:27.837Z,96791.40
2017-12-31T05:11:32.713Z,96791.69
2017-12-31T05:12:37.603Z,96794.89
2017-12-31T05:13:42.525Z,96776.67
2017-12-31T05:14:47.403Z,96761.87
2017-12-31T05:15:52.771Z,96787.46
2017-12-31T05:16:57.776Z,96787.00
2017-12-31T05:18:02.663Z,96797.68
2017-12-31T05:19:07.578Z,96772.20
2017-12-31T05:20:12.444Z,96794.09
2017-12-31T05:21:19.268Z,96781.38
2017-12-31T05:22:24.570Z,96807.08
2017-12-31T05:23:29.493Z,96789.80
2017-12-31T05:24:34.368Z,96774.81
2017-12-31T05:25:39.272Z,96774.78
2017-12-31T05:26:44.199Z,96781.47
2017-12-31T05:27:49.303Z,96775.02
2017-12-31T05:28:54.515Z,96777.47
2017-12-31T05:30:02.277Z,96788.61
2017-12-31T05:31:07.122Z,96796.56
2017-12-31T05:32:12.898Z,96766.25
2017-12-31T05:33:17.627Z,96802.79
2017-12-31T05:34:22.523Z,96786.41
2017-12-31T05:35:27.878Z,96785.03
2017-12-31T05:36:32.633Z,96786.75
2017-12-31T05:37:37.498Z,96793.14
2017-12-31T05:38:42.343Z,96773.41
2017-12-31T05:39:48.542Z,96772.59
2017-12-31T05:40:53.717Z,96803.23
2017-12-31T05:41:59.061Z,96824.28
2017-12-31T05:43:03.952Z,96790.32
2017-12-31T05:44:08.817Z,96798.94
2017-12-31T05:45:13.692Z,96795.17
2017-12-31T05:46:18.909Z,96786.89
2017-12-31T05:47:23.854Z,96805.22
2017-12-31T05:48:29.290Z,96805.95
2017-12-31T05:49:34.128Z,96820.39
2017-12-31T05:50:39.056Z,96799.56
2017-12-31T05:51:43.894Z,96796.27
2017-12-31T05:52:48.744Z,96808.23
2017-12-31T05:53:53.611Z,96813.77
2017-12-31T05:54:58.909Z,96804.23
2017-12-31T05:56:03.921Z,96795.06
2017-12-31T05:57:09.048Z,96820.16
2017-12-31T05:58:13.898Z,96809.26
2017-12-31T05:59:19.162Z,96816.68
2017-12-31T06:00:24.089Z,96808.13
2017-12-31T06:01:29.243Z,96795.62
2017-12-31T06:02:33.948Z,96799.22
2017-12-31T06:03:38.617Z,96823.83
2017-12-31T06:04:43.311Z,96809.31
2017-12-31T06:05:48.010Z,96834.16
2017-12-31T06:06:53.036Z,96813.99
2017-12-31T06:07:58.373Z,96807.04
2017-12-31T06:09:04.316Z,96807.66
2017-12-31T06:10:09.066Z,96782.39
2017-12-31T06:11:13.817Z,96820.11
2017-12-31T06:12:18.505Z,96806.92
2017-12-31T06:13:23.285Z,96834.25
2017-12-31T06:14:28.473Z,96813.09
2017-12-31T06:15:33.482Z,96818.38
2017-12-31T06:16:38.437Z,96800.58
2017-12-31T06:17:43.240Z,96803.77
2017-12-31T06:18:48.314Z,96812.80
2017-12-31T06:19:53.561Z,96812.80
2017-12-31T06:20:58.966Z,96809.83
2017-12-31T06:22:03.974Z,96805.95
2017-12-31T06:23:10.530Z,96812.52
2017-12-31T06:24:15.555Z,96799.22
2017-12-31T06:25:20.464Z,96820.16
2017-12-31T06:26:25.910Z,96818.05
2017-12-31T06:27:30.819Z,96815.48
2017-12-31T06:28:35.738Z,96821.09
2017-12-31T06:29:40.658Z,96797.99
2017-12-31T06:30:45.514Z,96822.20
2017-12-31T06:31:50.397Z,96822.43
2017-12-31T06:32:55.681Z,96817.01
2017-12-31T06:34:00.921Z,96825.98
2017-12-31T06:35:05.855Z,96816.27
2017-12-31T06:36:10.742Z,96831.20
2017-12-31T06:37:15.622Z,96818.13
2017-12-31T06:38:20.535Z,96825.66
2017-12-31T06:39:25.819Z,96832.00
2017-12-31T06:40:30.921Z,96835.56
2017-12-31T06:41:35.780Z,96843.96
2017-12-31T06:42:42.634Z,96828.14
2017-12-31T06:43:47.521Z,96837.03
2017-12-31T06:44:52.372Z,96832.69
2017-12-31T06:45:57.583Z,96839.27
2017-12-31T06:47:02.513Z,96813.27
2017-12-31T06:48:07.422Z,96823.67
2017-12-31T06:49:12.273Z,96818.13
2017-12-31T06:50:17.283Z,96841.83
2017-12-31T06:51:22.214Z,96832.00
2017-12-31T06:52:27.514Z,96829.61
2017-12-31T06:53:32.413Z,96835.09
2017-12-31T06:54:39.451Z,96836.69
2017-12-31T06:55:44.334Z,96827.03
2017-12-31T06:56:49.269Z,96841.14
2017-12-31T06:57:54.265Z,96849.71
2017-12-31T06:59:00.291Z,96846.66
2017-12-31T07:00:06.063Z,96837.17
2017-12-31T07:01:10.945Z,96840.86
2017-12-31T07:02:15.950Z,96833.72
2017-12-31T07:03:20.843Z,96831.66
2017-12-31T07:04:26.688Z,96842.00
2017-12-31T07:05:32.071Z,96843.23
2017-12-31T07:06:36.900Z,96836.66
2017-12-31T07:07:41.925Z,96847.25
2017-12-31T07:08:46.813Z,96855.11
2017-12-31T07:09:51.751Z,96850.88
2017-12-31T07:10:56.926Z,96854.17
2017-12-31T07:12:02.264Z,96844.52
2017-12-31T07:13:07.171Z,96857.45
2017-12-31T07:14:12.096Z,96865.62
2017-12-31T07:15:17.181Z,96853.42
2017-12-31T07:16:22.080Z,96856.59
2017-12-31T07:17:27.045Z,96870.14
2017-12-31T07:18:32.671Z,96859.68
2017-12-31T07:19:37.621Z,96854.83
2017-12-31T07:20:42.649Z,96861.80
2017-12-31T07:21:47.665Z,96861.45
2017-12-31T07:22:52.645Z,96860.02
2017-12-31T07:23:57.710Z,96861.17
2017-12-31T07:25:03.203Z,96851.83
2017-12-31T07:26:08.303Z,96866.31
2017-12-31T07:27:13.352Z,96863.17
2017-12-31T07:28:18.334Z,96868.66
2017-12-31T07:29:23.403Z,96867.51
2017-12-31T07:30:28.837Z,96862.54
2017-12-31T07:31:34.746Z,96866.63
2017-12-31T07:32:39.800Z,96861.52
2017-12-31T07:33:45.115Z,96849.52
2017-12-31T07:34:50.318Z,96853.14
2017-12-31T07:35:56.083Z,96860.80
2017-12-31T07:37:01.755Z,96860.08
2017-12-31T07:38:07.508Z,96858.25
2017-12-31T07:39:13.248Z,96856.31
2017-12-31T07:40:18.390Z,96861.05
2017-12-31T07:41:23.399Z,96851.86
2017-12-31T07:42:28.322Z,96847.74
2017-12-31T07:43:33.193Z,96868.20
2017-12-31T07:44:38.365Z,96853.54
2017-12-31T07:45:43.316Z,96850.23
2017-12-31T07:46:48.177Z,96854.56
2017-12-31T07:47:53.061Z,96851.48
2017-12-31T07:48:57.873Z,96851.86
2017-12-31T07:50:03.318Z,96843.94
2017-12-31T07:51:09.288Z,96851.59
2017-12-31T07:52:14.779Z,96845.03
2017-12-31T07:53:20.289Z,96848.06
2017-12-31T07:54:25.782Z,96836.72
2017-12-31T07:55:31.335Z,96844.43
2017-12-31T07:56:36.365Z,96850.40
2017-12-31T07:57:41.808Z,96869.91
2017-12-31T07:58:47.185Z,96851.39
2017-12-31T07:59:52.661Z,96849.80
2017-12-31T08:00:58.069Z,96851.06
2017-12-31T08:02:03.791Z,96847.52
2017-12-31T08:03:09.264Z,96851.86
2017-12-31T08:04:15.426Z,96840.37
2017-12-31T08:05:20.223Z,96846.25
2017-12-31T08:06:25.139Z,96848.20
2017-12-31T08:07:30.651Z,96848.83
2017-12-31T08:08:35.438Z,96848.02
2017-12-31T08:09:40.308Z,96841.00
2017-12-31T08:10:45.452Z,96852.88
2017-12-31T08:11:50.798Z,96838.48
2017-12-31T08:12:55.680Z,96845.69
2017-12-31T08:14:00.564Z,96843.63
2017-12-31T08:15:05.509Z,96844.25
2017-12-31T08:16:11.217Z,96840.55
2017-12-31T08:17:17.824Z,96834.83
2017-12-31T08:18:23.195Z,96846.66
2017-12-31T08:19:28.541Z,96843.85
2017-12-31T08:20:33.423Z,96856.42
2017-12-31T08:21:38.222Z,96851.40
2017-12-31T08:22:43.048Z,96860.25
2017-12-31T08:23:48.163Z,96861.80
2017-12-31T08:24:53.062Z,96864.83
2017-12-31T08:25:58.173Z,96856.62
2017-12-31T08:27:03.050Z,96860.02
2017-12-31T08:28:08.470Z,96862.88
2017-12-31T08:29:13.390Z,96866.54
2017-12-31T08:30:18.597Z,96863.02
2017-12-31T08:31:23.504Z,96874.96
2017-12-31T08:32:28.405Z,96868.08
2017-12-31T08:33:33.309Z,96875.34
2017-12-31T08:34:39.169Z,96874.25
2017-12-31T08:35:44.405Z,96875.22
2017-12-31T08:36:49.534Z,96870.08
2017-12-31T08:37:54.560Z,96865.56
2017-12-31T08:38:59.579Z,96865.68
2017-12-31T08:40:04.501Z,96869.56
2017-12-31T08:41:09.381Z,96868.42
2017-12-31T08:42:14.328Z,96868.99
2017-12-31T08:43:19.574Z,96870.82
2017-12-31T08:44:24.627Z,96873.68
2017-12-31T08:45:29.589Z,96877.80
2017-12-31T08:46:34.563Z,96881.63
2017-12-31T08:47:39.477Z,96878.88
2017-12-31T08:48:44.441Z,96873.79
2017-12-31T08:49:49.914Z,96870.77
2017-12-31T08:50:54.880Z,96875.67
2017-12-31T08:51:59.880Z,96871.30
2017-12-31T08:53:04.900Z,96877.13
2017-12-31T08:54:10.235Z,96881.65
2017-12-31T08:55:17.031Z,96888.19
2017-12-31T08:56:22.351Z,96889.00
2017-12-31T08:57:27.914Z,96887.29
2017-12-31T08:58:33.777Z,96880.59
2017-12-31T08:59:38.864Z,96884.70
2017-12-31T09:00:43.908Z,96881.67
2017-12-31T09:01:48.801Z,96885.22
2017-12-31T09:02:53.714Z,96878.81
2017-12-31T09:03:59.263Z,96881.73
2017-12-31T09:05:04.190Z,96882.30
2017-12-31T09:06:09.166Z,96878.30
2017-12-31T09:07:14.080Z,96882.48
2017-12-31T09:08:19.348Z,96889.67
2017-12-31T09:09:24.215Z,96878.42
2017-12-31T09:10:29.098Z,96889.39
2017-12-31T09:11:33.999Z,96900.82
2017-12-31T09:12:39.796Z,96886.02
2017-12-31T09:13:44.684Z,96879.39
2017-12-31T09:14:49.895Z,96890.19
2017-12-31T09:15:54.788Z,96889.56
2017-12-31T09:17:00.120Z,96889.45
2017-12-31T09:18:05.007Z,96892.76
2017-12-31T09:19:09.890Z,96885.56
2017-12-31T09:20:14.834Z,96894.25
2017-12-31T09:21:20.075Z,96890.47
2017-12-31T09:22:25.035Z,96891.16
2017-12-31T09:23:30.003Z,96895.22
2017-12-31T09:24:35.495Z,96874.53
2017-12-31T09:25:40.442Z,96873.22
2017-12-31T09:26:45.426Z,96894.47
2017-12-31T09:27:50.868Z,96873.34
2017-12-31T09:28:55.799Z,96892.81
2017-12-31T09:30:00.723Z,96895.96
2017-12-31T09:31:05.688Z,96885.81
2017-12-31T09:32:10.620Z,96892.02
2017-12-31T09:33:15.527Z,96878.27
2017-12-31T09:34:20.751Z,96872.11
2017-12-31T09:35:25.639Z,96877.02
2017-12-31T09:36:30.498Z,96866.08
2017-12-31T09:37:35.421Z,96861.31
2017-12-31T09:38:40.325Z,96870.33
2017-12-31T09:39:45.250Z,96869.64
2017-12-31T09:40:50.482Z,96868.45
2017-12-31T09:41:57.606Z,96863.99
2017-12-31T09:43:02.537Z,96869.70
2017-12-31T09:44:07.396Z,96865.48
2017-12-31T09:45:12.814Z,96862.91
2017-12-31T09:46:17.603Z,96858.00
2017-12-31T09:47:23.282Z,96882.38
2017-12-31T09:48:28.364Z,96852.84
2017-12-31T09:49:33.144Z,96857.81
2017-12-31T09:50:37.881Z,96849.31
2017-12-31T09:51:42.750Z,96859.30
2017-12-31T09:52:47.644Z,96861.13
2017-12-31T09:53:53.019Z,96855.13
2017-12-31T09:54:57.917Z,96834.86
2017-12-31T09:56:02.880Z,96852.73
2017-12-31T09:57:07.787Z,96866.49
2017-12-31T09:58:12.697Z,96861.78
2017-12-31T09:59:17.605Z,96845.38
2017-12-31T10:00:22.961Z,96855.14
2017-12-31T10:01:27.840Z,96855.19
2017-12-31T10:02:32.730Z,96839.95
2017-12-31T10:03:37.558Z,96843.02
2017-12-31T10:04:43.306Z,96827.02
2017-12-31T10:05:48.091Z,96830.58
2017-12-31T10:06:53.373Z,96841.73
2017-12-31T10:07:58.656Z,96835.14
2017-12-31T10:09:04.456Z,96837.08
2017-12-31T10:10:09.504Z,96842.48
2017-12-31T10:11:14.426Z,96829.13
2017-12-31T10:12:19.358Z,96835.92
2017-12-31T10:13:25.085Z,96839.75
2017-12-31T10:14:30.011Z,96825.77
2017-12-31T10:15:35.036Z,96831.63
2017-12-31T10:16:40.016Z,96808.06
2017-12-31T10:17:44.881Z,96829.20
2017-12-31T10:18:51.541Z,96830.17
2017-12-31T10:19:56.766Z,96830.59
2017-12-31T10:21:01.641Z,96822.25
2017-12-31T10:22:06.514Z,96827.56
2017-12-31T10:23:11.459Z,96843.44
2017-12-31T10:24:16.395Z,96826.14
2017-12-31T10:25:22.148Z,96823.91
2017-12-31T10:26:27.312Z,96819.85
2017-12-31T10:27:32.081Z,96815.92
2017-12-31T10:28:36.747Z,96828.77
2017-12-31T10:29:41.602Z,96848.52
2017-12-31T10:30:46.756Z,96820.48
2017-12-31T10:31:51.625Z,96829.86
2017-12-31T10:32:56.902Z,96842.98
2017-12-31T10:34:02.020Z,96842.70
2017-12-31T10:35:06.914Z,96815.41
2017-12-31T10:36:11.798Z,96825.62
2017-12-31T10:37:16.995Z,96832.17
2017-12-31T10:38:21.907Z,96838.72
2017-12-31T10:39:27.092Z,96837.52
2017-12-31T10:40:32.058Z,96827.27
2017-12-31T10:41:36.950Z,96819.27
2017-12-31T10:42:41.835Z,96822.93
2017-12-31T10:43:46.749Z,96763.00
2017-12-31T10:44:51.637Z,96851.20
2017-12-31T10:45:56.789Z,96813.81
2017-12-31T10:47:01.546Z,96815.64
2017-12-31T10:48:07.134Z,96833.28
2017-12-31T10:49:12.973Z,96829.05
2017-12-31T10:50:17.854Z,96782.27
2017-12-31T10:51:22.750Z,96812.36
2017-12-31T10:52:28.053Z,96816.24
2017-12-31T10:53:32.940Z,96816.24
2017-12-31T10:54:37.917Z,96816.24
2017-12-31T10:55:42.790Z,96798.59
2017-12-31T10:56:48.252Z,96797.11
2017-12-31T10:57:53.153Z,96820.41
2017-12-31T10:58:58.246Z,96848.11
2017-12-31T11:00:03.172Z,96813.63
2017-12-31T11:01:08.097Z,96815.01
2017-12-31T11:02:12.994Z,96815.55
2017-12-31T11:03:17.956Z,96829.58
2017-12-31T11:04:23.150Z,96837.91
2017-12-31T11:05:28.134Z,96827.11
2017-12-31T11:06:33.064Z,96805.41
2017-12-31T11:07:38.022Z,96824.20
2017-12-31T11:08:43.629Z,96814.83
2017-12-31T11:09:49.250Z,96804.36
2017-12-31T11:10:54.436Z,96802.83
2017-12-31T11:11:59.751Z,96811.16
2017-12-31T11:13:04.537Z,96745.00
2017-12-31T11:14:09.316Z,96776.03
2017-12-31T11:15:14.249Z,96805.01
2017-12-31T11:16:19.188Z,96780.20
2017-12-31T11:17:24.375Z,96813.24
2017-12-31T11:18:31.171Z,96796.15
2017-12-31T11:19:35.959Z,96799.98
2017-12-31T11:20:40.702Z,96795.01
2017-12-31T11:21:45.428Z,96775.87
2017-12-31T11:22:50.159Z,96768.78
2017-12-31T11:24:04.835Z,96814.27
2017-12-31T11:25:09.596Z,96786.38
2017-12-31T11:26:14.352Z,96787.24
2017-12-31T11:27:19.337Z,96769.84
2017-12-31T11:28:24.160Z,96805.70
2017-12-31T11:29:28.915Z,96783.69
2017-12-31T11:30:34.267Z,96795.41
2017-12-31T11:31:39.119Z,96776.20
2017-12-31T11:32:43.970Z,96816.78
2017-12-31T11:33:48.796Z,96790.66
2017-12-31T11:34:53.658Z,96774.31
2017-12-31T11:35:58.638Z,96801.06
2017-12-31T11:37:05.024Z,96773.17
2017-12-31T11:38:09.917Z,96765.97
2017-12-31T11:39:14.736Z,96746.27
2017-12-31T11:40:19.551Z,96810.33
2017-12-31T11:41:24.346Z,96770.82
2017-12-31T11:42:29.158Z,96771.91
2017-12-31T11:43:34.448Z,96773.16
2017-12-31T11:44:40.164Z,96784.65
2017-12-31T11:45:45.137Z,96785.64
2017-12-31T11:46:50.066Z,96783.47
2017-12-31T11:47:55.010Z,96761.00
2017-12-31T11:48:59.964Z,96770.14
2017-12-31T11:50:05.247Z,96762.02
2017-12-31T11:51:10.206Z,96773.56
2017-12-31T11:52:14.991Z,96741.75
2017-12-31T11:53:19.706Z,96767.17
2017-12-31T11:54:24.573Z,96777.33
2017-12-31T11:55:29.478Z,96777.67
2017-12-31T11:56:34.717Z,96792.03
2017-12-31T11:57:39.671Z,96768.20
2017-12-31T11:58:44.660Z,96749.75
2017-12-31T11:59:49.508Z,96773.96
2017-12-31T12:00:54.444Z,96759.27
2017-12-31T12:01:59.381Z,96776.53
2017-12-31T12:03:04.564Z,96747.80
2017-12-31T12:04:09.467Z,96780.88
2017-12-31T12:05:14.406Z,96749.97
2017-12-31T12:06:19.182Z,96770.53
2017-12-31T12:07:24.816Z,96749.09
2017-12-31T12:08:29.728Z,96759.67
2017-12-31T12:09:34.907Z,96810.30
2017-12-31T12:10:40.864Z,96776.23
2017-12-31T12:11:45.795Z,96760.56
2017-12-31T12:12:50.739Z,96773.66
2017-12-31T12:13:55.710Z,96734.16
2017-12-31T12:15:00.678Z,96739.75
2017-12-31T12:16:05.885Z,96747.43
2017-12-31T12:17:10.789Z,96668.41
2017-12-31T12:18:15.659Z,96716.66
2017-12-31T12:19:20.498Z,96748.56
2017-12-31T12:20:25.325Z,96754.27
2017-12-31T12:21:30.125Z,96768.75
2017-12-31T12:22:35.357Z,96733.91
2017-12-31T12:23:40.151Z,96785.31
2017-12-31T12:24:45.129Z,96781.83
2017-12-31T12:25:50.113Z,96745.11
2017-12-31T12:26:55.004Z,96768.73
2017-12-31T12:27:59.919Z,96740.66
2017-12-31T12:29:05.137Z,96751.02
2017-12-31T12:30:10.057Z,96742.28
2017-12-31T12:31:14.963Z,96771.78
2017-12-31T12:32:20.473Z,96779.89
2017-12-31T12:33:25.418Z,96720.09
2017-12-31T12:34:30.375Z,96792.91
2017-12-31T12:35:35.646Z,96743.14
2017-12-31T12:36:40.559Z,96763.34
2017-12-31T12:37:46.400Z,96726.57
2017-12-31T12:38:51.357Z,96722.80
2017-12-31T12:39:56.270Z,96695.59
2017-12-31T12:41:01.272Z,96747.92
2017-12-31T12:42:06.875Z,96737.88
2017-12-31T12:43:11.850Z,96735.12
2017-12-31T12:44:16.755Z,96725.56
2017-12-31T12:45:21.637Z,96749.89